createdAt,value
2018-10-21T00:00:20.563Z,8.60
2018-10-21T00:01:25.276Z,8.60
2018-10-21T00:02:30.022Z,8.60
2018-10-21T00:03:34.733Z,8.60
2018-10-21T00:04:39.504Z,8.50
2018-10-21T00:05:44.206Z,8.60
2018-10-21T00:06:49.069Z,8.50
2018-10-21T00:07:53.841Z,8.60
2018-10-21T00:08:58.647Z,8.50
2018-10-21T00:10:03.508Z,8.50
2018-10-21T00:11:08.269Z,8.50
2018-10-21T00:12:12.986Z,8.50
2018-10-21T00:13:17.743Z,8.50
2018-10-21T00:14:22.498Z,8.50
2018-10-21T00:15:27.366Z,8.50
2018-10-21T00:16:32.209Z,8.50
2018-10-21T00:17:36.907Z,8.50
2018-10-21T00:18:41.789Z,8.50
2018-10-21T00:19:46.509Z,8.50
2018-10-21T00:20:51.285Z,8.50
2018-10-21T00:21:56.007Z,8.50
2018-10-21T00:23:00.768Z,8.50
2018-10-21T00:24:05.620Z,8.50
2018-10-21T00:25:10.380Z,8.50
2018-10-21T00:26:15.108Z,8.50
2018-10-21T00:27:19.820Z,8.50
2018-10-21T00:28:24.515Z,8.50
2018-10-21T00:29:29.545Z,8.50
2018-10-21T00:30:34.298Z,8.50
2018-10-21T00:31:39.069Z,8.50
2018-10-21T00:32:50.685Z,8.50
2018-10-21T00:33:55.425Z,8.50
2018-10-21T00:35:00.147Z,8.50
2018-10-21T00:36:05.069Z,8.50
2018-10-21T00:37:09.845Z,8.50
2018-10-21T00:38:14.561Z,8.50
2018-10-21T00:39:19.260Z,8.50
2018-10-21T00:40:23.999Z,8.50
2018-10-21T00:41:28.719Z,8.50
2018-10-21T00:42:33.442Z,8.50
2018-10-21T00:43:38.151Z,8.50
2018-10-21T00:44:43.120Z,8.50
2018-10-21T00:45:48.199Z,8.50
2018-10-21T00:46:52.897Z,8.50
2018-10-21T00:47:57.613Z,8.40
2018-10-21T00:49:02.337Z,8.40
2018-10-21T00:50:08.681Z,8.40
2018-10-21T00:51:13.476Z,8.40
2018-10-21T00:52:18.158Z,8.30
2018-10-21T00:53:22.906Z,8.30
2018-10-21T00:54:27.764Z,8.30
2018-10-21T00:55:32.464Z,8.30
2018-10-21T00:56:37.253Z,8.30
2018-10-21T00:57:41.955Z,8.30
2018-10-21T00:58:46.685Z,8.30
2018-10-21T00:59:51.534Z,8.30
2018-10-21T01:00:56.346Z,8.30
2018-10-21T01:02:01.148Z,8.40
2018-10-21T01:03:06.195Z,8.30
2018-10-21T01:04:11.031Z,8.40
2018-10-21T01:05:15.748Z,8.40
2018-10-21T01:06:20.477Z,8.30
2018-10-21T01:07:25.190Z,8.40
2018-10-21T01:08:29.918Z,8.40
2018-10-21T01:09:34.684Z,8.40
2018-10-21T01:10:39.828Z,8.40
2018-10-21T01:11:44.541Z,8.40
2018-10-21T01:12:49.297Z,8.40
2018-10-21T01:13:54.416Z,8.40
2018-10-21T01:14:59.213Z,8.40
2018-10-21T01:16:03.956Z,8.40
2018-10-21T01:17:08.725Z,8.40
2018-10-21T01:18:13.618Z,8.40
2018-10-21T01:19:18.366Z,8.40
2018-10-21T01:20:23.202Z,8.30
2018-10-21T01:21:27.962Z,8.30
2018-10-21T01:22:32.666Z,8.30
2018-10-21T01:23:37.420Z,8.20
2018-10-21T01:24:42.121Z,8.20
2018-10-21T01:25:46.826Z,8.20
2018-10-21T01:26:51.541Z,8.20
2018-10-21T01:27:56.285Z,8.20
2018-10-21T01:29:01.007Z,8.20
2018-10-21T01:30:06.954Z,8.20
2018-10-21T01:31:11.776Z,8.20
2018-10-21T01:32:18.001Z,8.10
2018-10-21T01:33:22.655Z,8.10
2018-10-21T01:34:27.410Z,8.10
2018-10-21T01:35:32.129Z,8.10
2018-10-21T01:36:37.062Z,8.00
2018-10-21T01:37:41.742Z,8.00
2018-10-21T01:38:46.417Z,8.00
2018-10-21T01:40:56.833Z,8.00
2018-10-21T01:42:01.598Z,7.90
2018-10-21T01:43:07.348Z,7.90
2018-10-21T01:44:12.047Z,7.80
2018-10-21T01:45:16.778Z,7.80
2018-10-21T01:46:21.516Z,7.80
2018-10-21T01:47:26.306Z,7.80
2018-10-21T01:48:31.846Z,7.80
2018-10-21T01:49:36.582Z,7.70
2018-10-21T01:50:41.307Z,7.70
2018-10-21T01:51:46.018Z,7.70
2018-10-21T01:52:50.751Z,7.70
2018-10-21T01:53:55.462Z,7.60
2018-10-21T01:55:00.169Z,7.60
2018-10-21T01:56:05.164Z,7.60
2018-10-21T01:57:09.954Z,7.60
2018-10-21T01:58:14.635Z,7.50
2018-10-21T01:59:19.337Z,7.50
2018-10-21T02:00:24.874Z,7.50
2018-10-21T02:01:29.609Z,7.50
2018-10-21T02:02:34.329Z,7.50
2018-10-21T02:03:39.038Z,7.50
2018-10-21T02:04:43.742Z,7.40
2018-10-21T02:05:48.798Z,7.40
2018-10-21T02:06:53.518Z,7.40
2018-10-21T02:07:58.222Z,7.40
2018-10-21T02:09:03.128Z,7.30
2018-10-21T02:10:08.023Z,7.30
2018-10-21T02:11:12.797Z,7.30
2018-10-21T02:12:17.522Z,7.30
2018-10-21T02:13:22.238Z,7.30
2018-10-21T02:14:27.002Z,7.30
2018-10-21T02:15:31.817Z,7.20
2018-10-21T02:16:36.569Z,7.10
2018-10-21T02:17:41.577Z,7.10
2018-10-21T02:18:46.285Z,7.10
2018-10-21T02:19:51.035Z,7.10
2018-10-21T02:20:55.818Z,7.10
2018-10-21T02:22:00.501Z,7.10
2018-10-21T02:23:05.275Z,7.10
2018-10-21T02:24:09.999Z,7.00
2018-10-21T02:25:14.750Z,7.00
2018-10-21T02:26:19.520Z,7.00
2018-10-21T02:27:24.261Z,7.00
2018-10-21T02:28:28.965Z,7.00
2018-10-21T02:29:33.674Z,7.00
2018-10-21T02:30:38.432Z,7.00
2018-10-21T02:31:43.181Z,7.00
2018-10-21T02:32:48.626Z,6.90
2018-10-21T02:33:53.346Z,7.00
2018-10-21T02:34:58.146Z,6.90
2018-10-21T02:36:02.908Z,7.00
2018-10-21T02:37:07.682Z,6.90
2018-10-21T02:38:12.398Z,6.90
2018-10-21T02:39:17.186Z,6.90
2018-10-21T02:41:45.024Z,6.90
2018-10-21T02:42:49.753Z,6.80
2018-10-21T02:43:54.462Z,6.80
2018-10-21T02:44:59.282Z,6.80
2018-10-21T02:46:03.978Z,6.80
2018-10-21T02:47:08.716Z,6.80
2018-10-21T02:48:13.448Z,6.80
2018-10-21T02:49:18.655Z,6.80
2018-10-21T02:50:23.362Z,6.80
2018-10-21T02:51:28.197Z,6.80
2018-10-21T02:52:32.914Z,6.70
2018-10-21T02:53:37.697Z,6.60
2018-10-21T02:54:42.558Z,6.70
2018-10-21T02:55:47.267Z,6.60
2018-10-21T02:56:52.074Z,6.60
2018-10-21T02:57:56.822Z,6.60
2018-10-21T02:59:01.543Z,6.70
2018-10-21T03:00:06.313Z,6.70
2018-10-21T03:01:11.017Z,6.70
2018-10-21T03:02:15.660Z,6.70
2018-10-21T03:03:20.393Z,6.60
2018-10-21T03:04:25.141Z,6.60
2018-10-21T03:05:29.785Z,6.60
2018-10-21T03:06:34.650Z,6.50
2018-10-21T03:07:39.418Z,6.50
2018-10-21T03:08:44.053Z,6.50
2018-10-21T03:09:48.767Z,6.50
2018-10-21T03:10:53.554Z,6.50
2018-10-21T03:11:58.349Z,6.50
2018-10-21T03:13:03.137Z,6.50
2018-10-21T03:14:07.858Z,6.40
2018-10-21T03:15:12.583Z,6.40
2018-10-21T03:16:17.331Z,6.50
2018-10-21T03:17:22.066Z,6.40
2018-10-21T03:18:26.812Z,6.40
2018-10-21T03:19:31.510Z,6.40
2018-10-21T03:20:36.210Z,6.30
2018-10-21T03:21:41.426Z,6.30
2018-10-21T03:22:46.408Z,6.30
2018-10-21T03:23:51.189Z,6.30
2018-10-21T03:24:55.932Z,6.30
2018-10-21T03:26:01.031Z,6.30
2018-10-21T03:27:06.047Z,6.30
2018-10-21T03:28:10.755Z,6.30
2018-10-21T03:29:15.518Z,6.30
2018-10-21T03:30:20.224Z,6.20
2018-10-21T03:31:24.935Z,6.20
2018-10-21T03:32:29.702Z,6.20
2018-10-21T03:33:34.500Z,6.20
2018-10-21T03:34:39.201Z,6.10
2018-10-21T03:35:43.933Z,6.20
2018-10-21T03:36:48.631Z,6.10
2018-10-21T03:37:53.333Z,6.10
2018-10-21T03:38:58.116Z,6.10
2018-10-21T03:40:03.031Z,6.00
2018-10-21T03:41:07.779Z,5.80
2018-10-21T03:42:12.522Z,5.80
2018-10-21T03:43:17.333Z,5.90
2018-10-21T03:44:22.080Z,5.90
2018-10-21T03:45:27.131Z,5.90
2018-10-21T03:46:31.927Z,5.90
2018-10-21T03:47:36.581Z,5.90
2018-10-21T03:48:41.386Z,5.80
2018-10-21T03:49:46.094Z,5.90
2018-10-21T03:50:50.826Z,5.90
2018-10-21T03:51:55.547Z,5.90
2018-10-21T03:53:00.281Z,5.80
2018-10-21T03:54:05.135Z,5.80
2018-10-21T03:55:09.849Z,5.70
2018-10-21T03:56:14.545Z,5.70
2018-10-21T03:57:19.246Z,5.70
2018-10-21T03:58:23.933Z,5.80
2018-10-21T03:59:28.728Z,5.70
2018-10-21T04:00:33.433Z,5.80
2018-10-21T04:01:38.073Z,5.80
2018-10-21T04:02:42.874Z,5.70
2018-10-21T04:03:47.574Z,5.60
2018-10-21T04:04:52.297Z,5.60
2018-10-21T04:05:56.921Z,5.70
2018-10-21T04:07:01.586Z,5.70
2018-10-21T04:08:06.470Z,5.70
2018-10-21T04:09:11.117Z,5.70
2018-10-21T04:10:16.133Z,5.70
2018-10-21T04:11:20.918Z,5.80
2018-10-21T04:12:25.673Z,5.70
2018-10-21T04:13:30.423Z,5.80
2018-10-21T04:14:35.125Z,5.80
2018-10-21T04:15:39.874Z,5.80
2018-10-21T04:16:44.645Z,5.70
2018-10-21T04:17:49.414Z,5.60
2018-10-21T04:18:54.137Z,5.60
2018-10-21T04:19:58.820Z,5.60
2018-10-21T04:21:03.626Z,5.50
2018-10-21T04:22:08.422Z,5.40
2018-10-21T04:23:13.170Z,5.40
2018-10-21T04:24:17.903Z,5.40
2018-10-21T04:25:23.717Z,5.40
2018-10-21T04:26:28.433Z,5.50
2018-10-21T04:27:33.149Z,5.50
2018-10-21T04:28:37.851Z,5.50
2018-10-21T04:29:42.645Z,5.50
2018-10-21T04:30:47.416Z,5.40
2018-10-21T04:31:52.181Z,5.30
2018-10-21T04:33:04.700Z,5.30
2018-10-21T04:34:09.524Z,5.40
2018-10-21T04:35:14.231Z,5.40
2018-10-21T04:36:21.783Z,5.40
2018-10-21T04:37:37.411Z,5.40
2018-10-21T04:38:52.994Z,5.40
2018-10-21T04:40:12.860Z,5.40
2018-10-21T04:41:17.589Z,5.40
2018-10-21T04:42:22.295Z,5.30
2018-10-21T04:43:27.012Z,5.30
2018-10-21T04:44:31.645Z,5.30
2018-10-21T04:45:36.395Z,5.20
2018-10-21T04:46:41.223Z,5.10
2018-10-21T04:47:45.857Z,5.00
2018-10-21T04:48:50.570Z,5.10
2018-10-21T04:49:55.282Z,5.10
2018-10-21T04:51:00.721Z,5.20
2018-10-21T04:52:05.485Z,5.10
2018-10-21T04:53:10.239Z,5.10
2018-10-21T04:54:14.953Z,5.10
2018-10-21T04:55:19.671Z,5.20
2018-10-21T04:56:24.449Z,5.20
2018-10-21T04:57:29.170Z,5.20
2018-10-21T04:58:33.865Z,5.10
2018-10-21T04:59:39.749Z,5.10
2018-10-21T05:00:44.505Z,5.10
2018-10-21T05:01:49.381Z,5.00
2018-10-21T05:02:54.121Z,5.00
2018-10-21T05:03:58.860Z,4.90
2018-10-21T05:05:03.568Z,4.90
2018-10-21T05:06:08.649Z,4.90
2018-10-21T05:07:13.303Z,5.00
2018-10-21T05:08:17.951Z,5.00
2018-10-21T05:09:23.590Z,5.00
2018-10-21T05:10:35.448Z,5.10
2018-10-21T05:11:40.204Z,5.10
2018-10-21T05:12:44.932Z,5.00
2018-10-21T05:13:49.705Z,5.10
2018-10-21T05:14:54.541Z,5.00
2018-10-21T05:15:59.327Z,5.10
2018-10-21T05:17:03.985Z,5.00
2018-10-21T05:18:08.745Z,5.00
2018-10-21T05:19:13.449Z,5.10
2018-10-21T05:20:18.197Z,5.10
2018-10-21T05:21:22.919Z,5.00
2018-10-21T05:22:27.663Z,5.10
2018-10-21T05:23:32.429Z,5.00
2018-10-21T05:24:37.460Z,5.00
2018-10-21T05:25:42.195Z,5.10
2018-10-21T05:26:46.926Z,5.00
2018-10-21T05:27:51.649Z,5.10
2018-10-21T05:28:57.629Z,5.00
2018-10-21T05:30:02.380Z,5.00
2018-10-21T05:31:07.146Z,5.00
2018-10-21T05:32:11.913Z,5.00
2018-10-21T05:33:16.649Z,5.00
2018-10-21T05:34:21.371Z,4.90
2018-10-21T05:35:26.177Z,5.00
2018-10-21T05:36:30.914Z,5.00
2018-10-21T05:37:35.757Z,4.90
2018-10-21T05:38:40.701Z,5.00
2018-10-21T05:39:45.686Z,5.00
2018-10-21T05:40:50.426Z,5.00
2018-10-21T05:41:55.190Z,5.00
2018-10-21T05:43:00.661Z,5.00
2018-10-21T05:44:05.690Z,5.00
2018-10-21T05:45:10.481Z,5.00
2018-10-21T05:46:24.516Z,5.00
2018-10-21T05:47:32.834Z,5.00
2018-10-21T05:48:37.942Z,5.00
2018-10-21T05:49:42.675Z,5.00
2018-10-21T05:50:47.385Z,5.00
2018-10-21T05:51:52.475Z,5.00
2018-10-21T05:52:57.234Z,5.00
2018-10-21T05:54:02.044Z,5.00
2018-10-21T05:55:07.125Z,5.00
2018-10-21T05:56:12.021Z,5.00
2018-10-21T05:57:16.725Z,5.00
2018-10-21T05:58:21.525Z,4.90
2018-10-21T05:59:26.257Z,4.70
2018-10-21T06:00:30.970Z,4.60
2018-10-21T06:01:35.725Z,4.70
2018-10-21T06:02:40.482Z,4.70
2018-10-21T06:03:45.173Z,4.60
2018-10-21T06:04:49.913Z,4.70
2018-10-21T06:05:54.642Z,4.70
2018-10-21T06:06:59.399Z,4.70
2018-10-21T06:08:04.085Z,4.80
2018-10-21T06:09:10.524Z,4.80
2018-10-21T06:10:15.547Z,4.80
2018-10-21T06:11:20.271Z,4.80
2018-10-21T06:12:25.026Z,4.90
2018-10-21T06:13:29.782Z,4.90
2018-10-21T06:14:34.636Z,4.90
2018-10-21T06:15:39.566Z,4.90
2018-10-21T06:16:51.417Z,5.00
2018-10-21T06:17:56.223Z,5.00
2018-10-21T06:19:04.874Z,5.10
2018-10-21T06:20:48.169Z,5.10
2018-10-21T06:21:52.946Z,5.10
2018-10-21T06:22:59.297Z,4.90
2018-10-21T06:24:04.366Z,4.80
2018-10-21T06:25:10.069Z,4.80
2018-10-21T06:26:14.901Z,4.90
2018-10-21T06:27:19.689Z,4.90
2018-10-21T06:28:24.561Z,5.00
2018-10-21T06:29:31.063Z,5.00
2018-10-21T06:30:35.844Z,5.10
2018-10-21T06:31:40.509Z,5.20
2018-10-21T06:32:45.203Z,5.20
2018-10-21T06:33:50.605Z,5.30
2018-10-21T06:34:55.374Z,5.30
2018-10-21T06:36:00.706Z,5.30
2018-10-21T06:37:05.729Z,5.30
2018-10-21T06:38:11.804Z,5.40
2018-10-21T06:39:16.812Z,5.40
2018-10-21T06:40:22.085Z,5.40
2018-10-21T06:41:26.773Z,5.40
2018-10-21T06:42:31.541Z,5.40
2018-10-21T06:43:36.271Z,5.40
2018-10-21T06:44:41.502Z,5.40
2018-10-21T06:45:46.263Z,5.40
2018-10-21T06:46:50.966Z,5.40
2018-10-21T06:47:55.625Z,5.40
2018-10-21T06:49:00.393Z,5.60
2018-10-21T06:50:05.225Z,5.60
2018-10-21T06:51:09.962Z,5.60
2018-10-21T06:52:14.698Z,5.50
2018-10-21T06:53:19.398Z,5.50
2018-10-21T06:54:24.135Z,5.50
2018-10-21T06:55:28.925Z,5.60
2018-10-21T06:56:33.879Z,5.60
2018-10-21T06:57:38.638Z,5.80
2018-10-21T06:58:43.441Z,6.00
2018-10-21T06:59:48.242Z,6.00
2018-10-21T07:00:53.023Z,5.90
2018-10-21T07:01:57.765Z,6.00
2018-10-21T07:03:02.475Z,6.00
2018-10-21T07:04:07.533Z,6.20
2018-10-21T07:05:23.494Z,6.10
2018-10-21T07:06:29.223Z,6.10
2018-10-21T07:07:33.983Z,6.10
2018-10-21T07:08:38.754Z,6.20
2018-10-21T07:09:43.618Z,6.30
2018-10-21T07:10:48.334Z,6.40
2018-10-21T07:11:53.063Z,6.60
2018-10-21T07:12:58.347Z,6.70
2018-10-21T07:14:03.033Z,6.80
2018-10-21T07:15:07.735Z,6.90
2018-10-21T07:16:15.367Z,7.10
2018-10-21T07:17:20.993Z,7.50
2018-10-21T07:18:26.285Z,7.60
2018-10-21T07:19:31.022Z,7.40
2018-10-21T07:20:35.821Z,7.20
2018-10-21T07:21:41.513Z,7.10
2018-10-21T07:22:46.454Z,7.10
2018-10-21T07:23:51.193Z,7.10
2018-10-21T07:24:55.945Z,7.10
2018-10-21T07:26:01.034Z,7.10
2018-10-21T07:27:06.043Z,7.10
2018-10-21T07:28:10.822Z,7.00
2018-10-21T07:29:19.344Z,6.90
2018-10-21T07:30:31.825Z,6.90
2018-10-21T07:31:40.350Z,6.90
2018-10-21T07:32:48.957Z,6.90
2018-10-21T07:33:54.009Z,6.80
2018-10-21T07:34:58.758Z,6.80
2018-10-21T07:36:04.226Z,7.00
2018-10-21T07:37:08.876Z,7.20
2018-10-21T07:38:13.621Z,7.30
2018-10-21T07:39:23.857Z,7.30
2018-10-21T07:40:31.391Z,7.30
2018-10-21T07:41:36.785Z,7.20
2018-10-21T07:42:41.786Z,7.10
2018-10-21T07:43:47.375Z,7.20
2018-10-21T07:44:52.841Z,7.10
2018-10-21T07:45:58.461Z,7.10
2018-10-21T07:47:04.001Z,7.20
2018-10-21T07:48:08.703Z,7.20
2018-10-21T07:49:16.405Z,7.20
2018-10-21T07:50:21.838Z,7.30
2018-10-21T07:51:28.129Z,7.40
2018-10-21T07:52:32.912Z,7.50
2018-10-21T07:53:37.777Z,7.50
2018-10-21T07:54:47.028Z,7.50
2018-10-21T07:55:54.148Z,7.60
2018-10-21T07:56:58.826Z,7.60
2018-10-21T07:58:07.773Z,7.50
2018-10-21T07:59:13.237Z,7.50
2018-10-21T08:00:18.974Z,7.50
2018-10-21T08:01:24.278Z,7.50
2018-10-21T08:02:29.877Z,7.50
2018-10-21T08:03:37.142Z,7.50
2018-10-21T08:04:42.693Z,7.40
2018-10-21T08:07:20.928Z,7.50
2018-10-21T08:08:28.058Z,7.50
2018-10-21T08:09:39.850Z,7.50
2018-10-21T08:10:44.698Z,7.60
2018-10-21T08:11:54.684Z,7.60
2018-10-21T08:13:08.989Z,7.60
2018-10-21T08:14:13.727Z,7.60
2018-10-21T08:15:23.790Z,7.60
2018-10-21T08:16:28.659Z,7.70
2018-10-21T08:17:39.594Z,7.70
2018-10-21T08:20:01.066Z,7.70
2018-10-21T08:21:06.213Z,7.70
2018-10-21T08:22:16.763Z,7.70
2018-10-21T08:23:21.863Z,7.70
2018-10-21T08:24:31.586Z,7.80
2018-10-21T08:25:43.011Z,7.90
2018-10-21T08:26:54.628Z,8.20
2018-10-21T08:28:06.020Z,8.40
2018-10-21T08:29:10.782Z,8.50
2018-10-21T08:30:20.724Z,9.10
2018-10-21T08:31:27.249Z,9.70
2018-10-21T08:32:32.847Z,10.20
2018-10-21T08:33:43.197Z,10.20
2018-10-21T08:34:54.792Z,9.90
2018-10-21T08:36:04.621Z,9.60
2018-10-21T08:37:15.704Z,9.40
2018-10-21T08:38:25.811Z,9.10
2018-10-21T08:39:35.638Z,9.00
2018-10-21T08:40:45.983Z,8.90
2018-10-21T08:41:51.673Z,8.80
2018-10-21T08:42:56.834Z,8.80
2018-10-21T08:44:07.787Z,8.80
2018-10-21T08:45:17.774Z,8.70
2018-10-21T08:46:27.804Z,8.70
2018-10-21T08:47:37.758Z,8.70
2018-10-21T08:48:43.038Z,8.60
2018-10-21T08:49:47.797Z,8.60
2018-10-21T08:50:57.895Z,8.60
2018-10-21T08:52:03.757Z,8.70
2018-10-21T08:53:13.142Z,8.70
2018-10-21T08:54:19.981Z,8.60
2018-10-21T08:55:24.725Z,8.70
2018-10-21T08:56:34.688Z,8.70
2018-10-21T08:57:45.342Z,8.70
2018-10-21T08:58:54.940Z,8.70
2018-10-21T08:59:59.870Z,8.80
2018-10-21T09:01:10.893Z,8.80
2018-10-21T09:02:15.686Z,8.80
2018-10-21T09:03:23.991Z,8.80
2018-10-21T09:04:28.752Z,8.90
2018-10-21T09:05:33.745Z,8.90
2018-10-21T09:06:49.798Z,8.90
2018-10-21T09:07:59.726Z,8.90
2018-10-21T09:09:10.716Z,8.90
2018-10-21T09:10:20.831Z,9.00
2018-10-21T09:11:30.751Z,9.00
2018-10-21T09:12:40.645Z,9.10
2018-10-21T09:13:50.965Z,9.00
2018-10-21T09:14:55.885Z,9.10
2018-10-21T09:16:05.819Z,9.10
2018-10-21T09:17:15.663Z,9.20
2018-10-21T09:18:30.050Z,9.20
2018-10-21T09:19:34.769Z,9.30
2018-10-21T09:20:44.714Z,9.80
2018-10-21T09:21:58.251Z,10.20
2018-10-21T09:24:33.043Z,10.40
2018-10-21T09:25:38.765Z,10.30
2018-10-21T09:26:46.038Z,10.10
2018-10-21T09:27:59.996Z,10.00
2018-10-21T09:29:04.854Z,10.00
2018-10-21T09:30:16.917Z,10.00
2018-10-21T09:31:22.297Z,10.00
2018-10-21T09:32:31.897Z,10.20
2018-10-21T09:33:41.678Z,10.80
2018-10-21T09:34:51.803Z,11.80
2018-10-21T09:36:01.920Z,13.80
2018-10-21T09:37:06.799Z,16.00
2018-10-21T09:38:11.937Z,17.70
2018-10-21T09:39:21.579Z,18.40
2018-10-21T09:40:31.817Z,18.00
2018-10-21T09:41:41.713Z,17.10
2018-10-21T09:45:26.716Z,17.00
2018-10-21T09:46:38.864Z,15.80
2018-10-21T09:47:45.988Z,14.90
2018-10-21T09:48:51.787Z,14.70
2018-10-21T09:50:01.803Z,14.80
2018-10-21T09:51:06.950Z,14.40
2018-10-21T09:52:14.235Z,14.10
2018-10-21T09:53:18.978Z,14.00
2018-10-21T09:54:26.921Z,13.80
2018-10-21T09:56:47.965Z,13.20
2018-10-21T09:57:58.925Z,13.00
2018-10-21T09:59:08.674Z,12.70
2018-10-21T10:00:23.971Z,12.50
2018-10-21T10:01:33.763Z,12.30
2018-10-21T10:02:49.631Z,12.10
2018-10-21T10:03:59.909Z,12.00
2018-10-21T10:05:04.852Z,11.90
2018-10-21T10:06:14.677Z,11.80
2018-10-21T10:07:24.738Z,11.70
2018-10-21T10:08:30.859Z,11.70
2018-10-21T10:09:35.667Z,11.60
2018-10-21T10:10:45.776Z,11.50
2018-10-21T10:11:55.666Z,11.50
2018-10-21T10:13:05.755Z,11.40
2018-10-21T10:14:10.846Z,11.40
2018-10-21T10:15:20.773Z,11.40
2018-10-21T10:16:30.721Z,11.40
2018-10-21T10:17:40.818Z,11.50
2018-10-21T10:18:54.641Z,11.40
2018-10-21T10:20:04.646Z,11.30
2018-10-21T10:21:14.689Z,11.30
2018-10-21T10:22:24.853Z,11.40
2018-10-21T10:23:34.737Z,11.50
2018-10-21T10:24:49.680Z,11.60
2018-10-21T10:25:59.726Z,11.60
2018-10-21T10:27:09.770Z,11.60
2018-10-21T10:28:19.850Z,11.60
2018-10-21T10:29:24.703Z,11.60
2018-10-21T10:30:34.841Z,11.60
2018-10-21T10:31:44.732Z,11.60
2018-10-21T10:32:54.906Z,11.60
2018-10-21T10:34:04.648Z,11.70
2018-10-21T10:35:15.995Z,11.90
2018-10-21T10:36:21.018Z,11.80
2018-10-21T10:37:25.796Z,11.80
2018-10-21T10:39:52.755Z,11.70
2018-10-21T10:41:02.914Z,11.80
2018-10-21T10:42:12.855Z,11.70
2018-10-21T10:43:22.125Z,11.70
2018-10-21T10:44:27.876Z,11.70
2018-10-21T10:45:36.138Z,11.60
2018-10-21T10:46:40.871Z,11.60
2018-10-21T10:47:50.709Z,11.60
2018-10-21T10:49:00.907Z,11.60
2018-10-21T10:51:21.801Z,11.50
2018-10-21T10:52:31.995Z,11.50
2018-10-21T10:53:36.726Z,11.50
2018-10-21T10:54:46.969Z,11.50
2018-10-21T10:55:57.126Z,11.50
2018-10-21T10:57:02.831Z,11.50
2018-10-21T10:58:10.227Z,11.60
2018-10-21T10:59:15.821Z,11.60
2018-10-21T11:00:27.079Z,11.60
2018-10-21T11:01:37.796Z,11.60
2018-10-21T11:02:47.066Z,11.60
2018-10-21T11:05:11.290Z,11.80
2018-10-21T11:06:17.822Z,12.10
2018-10-21T11:08:47.911Z,12.20
2018-10-21T11:09:55.135Z,12.20
2018-10-21T11:11:00.858Z,12.20
2018-10-21T11:12:05.939Z,12.30
2018-10-21T11:13:15.788Z,12.30
2018-10-21T11:14:25.819Z,12.40
2018-10-21T11:15:35.706Z,12.60
2018-10-21T11:16:45.914Z,12.80
2018-10-21T11:17:55.667Z,12.60
2018-10-21T11:19:06.855Z,12.60
2018-10-21T11:21:32.961Z,12.70
2018-10-21T11:22:46.026Z,13.10
2018-10-21T11:23:52.907Z,13.40
2018-10-21T11:25:03.118Z,13.40
2018-10-21T11:26:08.725Z,13.40
2018-10-21T11:27:25.262Z,13.70
2018-10-21T11:28:30.805Z,14.00
2018-10-21T11:29:40.666Z,13.60
2018-10-21T11:30:50.807Z,13.40
2018-10-21T11:32:00.914Z,13.30
2018-10-21T11:33:07.019Z,13.10
2018-10-21T11:34:11.826Z,13.20
2018-10-21T11:35:21.886Z,13.40
2018-10-21T11:36:31.802Z,13.50
2018-10-21T11:37:42.182Z,13.80
2018-10-21T11:38:50.758Z,14.40
2018-10-21T11:40:00.907Z,15.20
2018-10-21T11:41:06.070Z,15.90
2018-10-21T11:43:32.018Z,17.80
2018-10-21T11:44:36.818Z,18.40
2018-10-21T11:47:04.110Z,18.70
2018-10-21T11:48:15.670Z,19.40
2018-10-21T11:50:58.935Z,19.80
2018-10-21T11:52:09.930Z,19.90
2018-10-21T11:53:19.851Z,19.50
2018-10-21T11:54:32.013Z,18.50
2018-10-21T11:57:08.757Z,16.90
2018-10-21T11:58:19.010Z,16.10
2018-10-21T11:59:28.849Z,15.60
2018-10-21T12:00:38.854Z,15.20
2018-10-21T12:01:48.985Z,14.90
2018-10-21T12:02:53.754Z,14.70
2018-10-21T12:04:04.005Z,14.40
2018-10-21T12:05:08.773Z,14.20
2018-10-21T12:06:14.907Z,14.10
2018-10-21T12:07:24.716Z,14.00
2018-10-21T12:08:34.943Z,14.10
2018-10-21T12:09:44.747Z,14.10
2018-10-21T12:10:54.906Z,14.00
2018-10-21T12:12:04.677Z,13.90
2018-10-21T12:13:14.841Z,13.90
2018-10-21T12:14:24.963Z,13.80
2018-10-21T12:15:29.745Z,13.70
2018-10-21T12:16:40.013Z,13.60
2018-10-21T12:18:16.572Z,13.50
2018-10-21T12:19:26.804Z,13.40
2018-10-21T12:20:38.212Z,13.20
2018-10-21T12:21:49.717Z,13.10
2018-10-21T12:22:59.984Z,13.00
2018-10-21T12:24:09.650Z,13.00
2018-10-21T12:25:23.247Z,12.80
2018-10-21T12:26:36.161Z,12.70
2018-10-21T12:27:41.780Z,12.60
2018-10-21T12:28:51.992Z,12.50
2018-10-21T12:30:01.763Z,12.50
2018-10-21T12:31:12.029Z,12.50
2018-10-21T12:32:21.749Z,12.50
2018-10-21T12:33:36.118Z,12.50
2018-10-21T12:34:46.722Z,12.50
2018-10-21T12:35:56.795Z,12.40
2018-10-21T12:37:07.731Z,12.50
2018-10-21T12:38:17.818Z,12.40
2018-10-21T12:39:27.966Z,12.30
2018-10-21T12:40:37.858Z,12.30
2018-10-21T12:41:47.192Z,12.30
2018-10-21T12:42:54.828Z,12.20
2018-10-21T12:44:04.805Z,12.10
2018-10-21T12:45:12.152Z,12.10
2018-10-21T12:46:16.965Z,12.10
2018-10-21T12:47:26.828Z,12.10
2018-10-21T12:48:34.142Z,12.10
2018-10-21T12:49:49.715Z,12.10
2018-10-21T12:50:57.910Z,12.10
2018-10-21T12:52:07.774Z,12.00
2018-10-21T12:53:17.990Z,12.00
2018-10-21T12:54:27.809Z,11.90
2018-10-21T12:55:54.314Z,11.90
2018-10-21T12:57:09.663Z,11.80
2018-10-21T12:58:20.111Z,11.90
2018-10-21T12:59:24.841Z,11.90
2018-10-21T13:00:32.244Z,11.90
2018-10-21T13:01:47.762Z,11.90
2018-10-21T13:02:57.854Z,11.90
2018-10-21T13:04:02.969Z,12.00
2018-10-21T13:05:08.091Z,12.00
2018-10-21T13:06:12.784Z,12.00
2018-10-21T13:07:22.978Z,12.00
2018-10-21T13:08:32.877Z,12.10
2018-10-21T13:09:37.777Z,12.20
2018-10-21T13:10:47.882Z,12.20
2018-10-21T13:11:57.870Z,12.30
2018-10-21T13:13:07.968Z,12.30
2018-10-21T13:14:13.718Z,12.70
2018-10-21T13:15:23.919Z,13.30
2018-10-21T13:16:28.860Z,14.40
2018-10-21T13:17:50.274Z,15.00
2018-10-21T13:18:58.095Z,14.90
2018-10-21T13:20:02.817Z,14.60
2018-10-21T13:21:10.349Z,14.70
2018-10-21T13:22:21.109Z,14.50
2018-10-21T13:23:26.115Z,14.30
2018-10-21T13:24:31.085Z,14.60
2018-10-21T13:25:40.979Z,14.50
2018-10-21T13:26:50.950Z,14.40
2018-10-21T13:28:00.909Z,14.20
2018-10-21T13:29:06.155Z,14.20
2018-10-21T13:30:11.821Z,14.20
2018-10-21T13:31:21.998Z,14.10
2018-10-21T13:32:31.754Z,13.90
2018-10-21T13:33:41.982Z,14.10
2018-10-21T13:34:51.777Z,14.30
2018-10-21T13:36:02.010Z,14.10
2018-10-21T13:37:07.887Z,14.00
2018-10-21T13:38:17.987Z,13.90
2018-10-21T13:39:23.601Z,13.80
2018-10-21T13:40:29.012Z,13.60
2018-10-21T13:41:34.510Z,13.50
2018-10-21T13:42:45.496Z,13.40
2018-10-21T13:43:55.975Z,13.40
2018-10-21T13:45:06.184Z,13.30
2018-10-21T13:46:12.069Z,13.20
2018-10-21T13:47:16.970Z,13.20
2018-10-21T13:48:26.729Z,13.10
2018-10-21T13:49:36.883Z,13.10
2018-10-21T13:50:46.834Z,13.10
2018-10-21T13:51:58.110Z,13.00
2018-10-21T13:53:07.835Z,13.00
2018-10-21T13:54:18.011Z,12.90
2018-10-21T13:55:23.297Z,12.90
2018-10-21T13:56:29.118Z,13.00
2018-10-21T13:57:46.709Z,13.10
2018-10-21T13:58:56.116Z,13.10
2018-10-21T14:00:00.834Z,13.00
2018-10-21T14:01:12.874Z,13.00
2018-10-21T14:03:36.008Z,13.00
2018-10-21T14:04:45.906Z,13.00
2018-10-21T14:05:55.760Z,13.10
2018-10-21T14:07:06.336Z,13.30
2018-10-21T14:08:24.959Z,13.30
2018-10-21T14:09:35.746Z,13.30
2018-10-21T14:10:46.090Z,13.30
2018-10-21T14:11:50.802Z,13.30
2018-10-21T14:13:00.822Z,13.30
2018-10-21T14:14:12.965Z,13.20
2018-10-21T14:15:18.000Z,13.10
2018-10-21T14:16:27.900Z,13.10
2018-10-21T14:17:38.110Z,13.00
2018-10-21T14:18:43.093Z,13.00
2018-10-21T14:19:53.911Z,13.00
2018-10-21T14:21:03.963Z,13.00
2018-10-21T14:22:10.040Z,13.00
2018-10-21T14:24:30.978Z,13.00
2018-10-21T14:25:36.093Z,12.90
2018-10-21T14:27:10.290Z,12.80
2018-10-21T14:28:21.989Z,12.80
2018-10-21T14:29:32.838Z,12.70
2018-10-21T14:30:43.129Z,12.70
2018-10-21T14:31:48.472Z,12.70
2018-10-21T14:33:03.809Z,12.60
2018-10-21T14:34:27.147Z,12.60
2018-10-21T14:35:34.073Z,12.60
2018-10-21T14:36:39.001Z,12.70
2018-10-21T14:37:49.545Z,12.70
2018-10-21T14:39:06.015Z,12.60
2018-10-21T14:40:14.218Z,12.60
2018-10-21T14:41:18.959Z,12.60
2018-10-21T14:42:28.967Z,12.60
2018-10-21T14:43:34.848Z,12.50
2018-10-21T14:44:44.865Z,12.50
2018-10-21T14:45:55.000Z,12.50
2018-10-21T14:47:04.743Z,12.50
2018-10-21T14:48:19.822Z,12.50
2018-10-21T14:49:24.924Z,12.50
2018-10-21T14:53:09.842Z,12.40
2018-10-21T14:54:19.918Z,12.40
2018-10-21T14:55:29.822Z,12.30
2018-10-21T14:56:40.022Z,12.20
2018-10-21T14:57:45.722Z,12.20
2018-10-21T14:58:56.033Z,12.10
2018-10-21T15:00:06.214Z,12.10
2018-10-21T15:01:25.459Z,12.10
2018-10-21T15:02:40.071Z,12.10
2018-10-21T15:05:07.913Z,11.90
2018-10-21T15:06:17.888Z,11.80
2018-10-21T15:07:28.246Z,11.80
2018-10-21T15:08:33.082Z,11.80
2018-10-21T15:09:37.980Z,11.70
2018-10-21T15:10:42.939Z,11.70